createdAt,value
2018-09-18T00:00:16.429Z,61.3
2018-09-18T00:10:18.442Z,61.3
2018-09-18T00:20:19.929Z,61.4
2018-09-18T00:30:21.947Z,61.5
2018-09-18T00:40:23.654Z,61.5
2018-09-18T00:50:25.493Z,61.3
2018-09-18T01:00:27.751Z,61.3
2018-09-18T01:10:29.325Z,61.3
2018-09-18T01:20:34.499Z,61.4
2018-09-18T01:30:36.091Z,61.5
2018-09-18T01:40:37.739Z,61.5
2018-09-18T01:50:39.660Z,61.6
2018-09-18T02:00:41.218Z,61.9
2018-09-18T02:10:43.426Z,61.7
2018-09-18T02:20:45.380Z,61.9
2018-09-18T02:30:48.076Z,61.8
2018-09-18T02:40:50.173Z,61.8
2018-09-18T02:50:51.732Z,61.9
2018-09-18T03:00:53.769Z,61.6
2018-09-18T03:10:55.184Z,62.1
2018-09-18T03:20:57.267Z,61.9
2018-09-18T03:30:59.127Z,61.9
2018-09-18T03:41:00.503Z,61.8
2018-09-18T03:51:02.340Z,61.7
2018-09-18T04:01:04.486Z,61.6
2018-09-18T04:11:05.755Z,61.7
2018-09-18T04:21:07.557Z,62
2018-09-18T04:31:09.553Z,62
2018-09-18T04:41:11.175Z,61.9
2018-09-18T04:51:13.080Z,62.6
2018-09-18T05:01:14.557Z,62.5
2018-09-18T05:11:16.084Z,62.6
2018-09-18T05:21:18.038Z,62.7
2018-09-18T05:31:19.984Z,62.4
2018-09-18T05:41:22.240Z,62.3
2018-09-18T05:51:24.078Z,62.3
2018-09-18T06:01:26.065Z,62.3
2018-09-18T06:11:27.938Z,62.2
2018-09-18T06:21:29.697Z,58.5
2018-09-18T06:31:31.762Z,57
2018-09-18T06:41:33.786Z,57.6
2018-09-18T06:51:35.777Z,56.9
2018-09-18T07:01:37.587Z,56.1
2018-09-18T07:11:39.655Z,55.7
2018-09-18T07:21:41.162Z,55.9
2018-09-18T07:31:43.216Z,55.9
2018-09-18T07:41:45.082Z,56
2018-09-18T07:51:46.948Z,55.8
2018-09-18T08:01:49.128Z,55.3
2018-09-18T08:11:51.225Z,55
2018-09-18T08:21:53.485Z,54.9
2018-09-18T08:31:55.766Z,54.6
2018-09-18T08:41:57.488Z,54.6
2018-09-18T08:51:59.855Z,54.6
2018-09-18T09:02:01.477Z,54.9
2018-09-18T09:22:06.232Z,54.9
2018-09-18T09:32:08.290Z,55.1
2018-09-18T09:42:10.388Z,55.1
2018-09-18T09:52:12.155Z,55.1
2018-09-18T10:02:14.357Z,55.2
2018-09-18T10:12:16.371Z,55.2
2018-09-18T10:22:17.747Z,55.4
2018-09-18T10:32:19.511Z,55.6
2018-09-18T10:42:21.420Z,55
2018-09-18T10:52:24.178Z,54.1
2018-09-18T11:02:26.067Z,54
2018-09-18T11:12:28.162Z,53.7
2018-09-18T11:22:30.116Z,53.8
2018-09-18T11:32:32.072Z,53.8
2018-09-18T11:42:33.343Z,53.7
2018-09-18T11:52:36.087Z,53.1
2018-09-18T12:02:38.380Z,53.6
2018-09-18T12:12:40.077Z,54.2
2018-09-18T12:22:41.518Z,54.5
2018-09-18T12:32:43.552Z,54.7
2018-09-18T12:42:45.372Z,54.9
2018-09-18T12:52:46.661Z,55
2018-09-18T13:02:48.462Z,55.3
2018-09-18T13:12:50.441Z,55.5
2018-09-18T13:22:52.392Z,55.7
2018-09-18T13:32:54.116Z,55.5
2018-09-18T13:42:56.437Z,55
2018-09-18T13:52:57.713Z,55.1
2018-09-18T14:03:00.113Z,54.8
2018-09-18T14:13:01.916Z,54.6
2018-09-18T14:23:04.018Z,54.3
2018-09-18T14:33:06.026Z,54
2018-09-18T14:43:07.696Z,53.7
2018-09-18T14:53:09.352Z,53.5
2018-09-18T15:03:10.929Z,53.4
2018-09-18T15:13:12.652Z,53.4
2018-09-18T15:23:14.299Z,53.4
2018-09-18T15:33:16.583Z,53.3
2018-09-18T15:43:18.414Z,53.4
2018-09-18T15:53:20.174Z,53.2
2018-09-18T16:03:22.446Z,52.7
2018-09-18T16:13:24.301Z,52.4
2018-09-18T16:23:26.256Z,52.2
2018-09-18T16:33:28.060Z,51.9
2018-09-18T16:43:29.466Z,52.1
2018-09-18T16:53:31.481Z,52.2
2018-09-18T17:03:33.678Z,52.2
2018-09-18T17:13:35.479Z,52.7
2018-09-18T17:23:37.468Z,52.7
2018-09-18T17:33:39.363Z,52.4
2018-09-18T17:43:41.068Z,52.7
2018-09-18T17:53:43.281Z,52.7
2018-09-18T18:03:45.313Z,52.8
2018-09-18T18:13:47.334Z,52.9
2018-09-18T18:23:49.526Z,53
2018-09-18T18:33:51.339Z,52.9
2018-09-18T18:43:53.086Z,53
2018-09-18T18:53:54.668Z,53.2
2018-09-18T19:03:56.323Z,53.3
2018-09-18T19:13:58.377Z,53.2
2018-09-18T19:24:00.832Z,53.5
2018-09-18T19:34:02.643Z,53.2
2018-09-18T19:44:03.997Z,53.4
2018-09-18T19:54:05.991Z,53.5
2018-09-18T20:04:08.089Z,53.9
2018-09-18T20:14:10.484Z,54.1
2018-09-18T20:24:12.337Z,54.2
2018-09-18T20:34:14.140Z,54.4
2018-09-18T20:44:16.039Z,53.6
2018-09-18T20:54:18.128Z,53.5
2018-09-18T21:04:20.326Z,53.5
2018-09-18T21:14:22.086Z,53.8
2018-09-18T21:24:23.682Z,54.2
2018-09-18T21:34:25.436Z,54.6
2018-09-18T21:44:27.184Z,55.2
2018-09-18T21:54:28.988Z,55.6
2018-09-18T22:04:30.656Z,55.8
2018-09-18T22:14:32.634Z,55.9
2018-09-18T22:24:34.590Z,56
2018-09-18T22:34:36.653Z,56.1
2018-09-18T22:44:38.182Z,56.3
2018-09-18T22:54:40.187Z,56.4
2018-09-18T23:04:42.021Z,56.6
2018-09-18T23:14:44.362Z,56.7
2018-09-18T23:24:45.602Z,56.8
2018-09-18T23:34:47.450Z,56.9
2018-09-18T23:44:49.055Z,57.1
2018-09-18T23:54:50.798Z,57.2
